sensor_id;sensor_type;location;lat;lon;timestamp;pressure;altitude;pressure_sealevel;temperature;humidity
69214;BME280;56325;47.030;18.518;2022-12-18T00:02:11;101916.38;;;-1.36;84.92
69214;BME280;56325;47.030;18.518;2022-12-18T00:04:45;101931.66;;;-1.40;85.37
69214;BME280;56325;47.030;18.518;2022-12-18T00:07:20;101945.50;;;-1.29;85.08
69214;BME280;56325;47.030;18.518;2022-12-18T00:09:54;101954.63;;;-1.21;85.29
69214;BME280;56325;47.030;18.518;2022-12-18T00:12:29;101958.34;;;-1.02;85.14
69214;BME280;56325;47.030;18.518;2022-12-18T00:15:06;101962.59;;;-0.88;85.00
69214;BME280;56325;47.030;18.518;2022-12-18T00:17:41;101970.81;;;-0.97;83.62
69214;BME280;56325;47.030;18.518;2022-12-18T00:20:15;101966.41;;;-0.77;83.48
69214;BME280;56325;47.030;18.518;2022-12-18T00:22:54;101982.72;;;-0.74;82.38
69214;BME280;56325;47.030;18.518;2022-12-18T00:25:29;101990.72;;;-1.02;82.58
69214;BME280;56325;47.030;18.518;2022-12-18T00:28:03;101992.41;;;-0.85;83.11
69214;BME280;56325;47.030;18.518;2022-12-18T00:30:39;102002.97;;;-0.80;82.02
69214;BME280;56325;47.030;18.518;2022-12-18T00:33:13;102021.88;;;-1.04;83.62
69214;BME280;56325;47.030;18.518;2022-12-18T00:35:48;102012.44;;;-0.98;82.74
69214;BME280;56325;47.030;18.518;2022-12-18T00:38:22;102010.53;;;-0.97;83.21
69214;BME280;56325;47.030;18.518;2022-12-18T00:40:57;102013.09;;;-1.13;83.27
69214;BME280;56325;47.030;18.518;2022-12-18T00:43:34;102008.41;;;-1.04;82.96
69214;BME280;56325;47.030;18.518;2022-12-18T00:46:10;102031.22;;;-1.14;83.33
69214;BME280;56325;47.030;18.518;2022-12-18T00:48:45;102025.25;;;-1.07;83.05
69214;BME280;56325;47.030;18.518;2022-12-18T00:51:19;102035.81;;;-1.14;83.50
69214;BME280;56325;47.030;18.518;2022-12-18T00:53:53;102023.56;;;-1.12;83.19
69214;BME280;56325;47.030;18.518;2022-12-18T00:56:28;102029.06;;;-1.20;82.85
69214;BME280;56325;47.030;18.518;2022-12-18T00:59:02;102018.69;;;-1.30;83.57
69214;BME280;56325;47.030;18.518;2022-12-18T01:01:38;102028.72;;;-1.19;83.70
69214;BME280;56325;47.030;18.518;2022-12-18T01:04:14;102031.19;;;-1.26;83.59
69214;BME280;56325;47.030;18.518;2022-12-18T01:06:50;102024.09;;;-1.30;84.62
69214;BME280;56325;47.030;18.518;2022-12-18T01:09:24;102031.53;;;-1.27;84.72
69214;BME280;56325;47.030;18.518;2022-12-18T01:11:59;102031.75;;;-1.20;84.36
69214;BME280;56325;47.030;18.518;2022-12-18T01:14:33;102041.22;;;-1.14;84.37
69214;BME280;56325;47.030;18.518;2022-12-18T01:17:09;102047.66;;;-1.07;84.04
69214;BME280;56325;47.030;18.518;2022-12-18T01:19:43;102054.41;;;-1.01;83.00
69214;BME280;56325;47.030;18.518;2022-12-18T01:22:17;102053.53;;;-0.92;83.51
69214;BME280;56325;47.030;18.518;2022-12-18T01:24:52;102062.88;;;-0.90;82.64
69214;BME280;56325;47.030;18.518;2022-12-18T01:27:26;102059.12;;;-0.85;83.53
69214;BME280;56325;47.030;18.518;2022-12-18T01:30:01;102060.63;;;-0.88;82.99
69214;BME280;56325;47.030;18.518;2022-12-18T01:32:37;102065.44;;;-0.81;82.92
69214;BME280;56325;47.030;18.518;2022-12-18T01:35:11;102065.78;;;-0.71;83.05
69214;BME280;56325;47.030;18.518;2022-12-18T01:37:46;102072.53;;;-0.64;82.29
69214;BME280;56325;47.030;18.518;2022-12-18T01:40:20;102071.97;;;-0.70;80.76
69214;BME280;56325;47.030;18.518;2022-12-18T01:42:56;102066.34;;;-0.77;80.64
69214;BME280;56325;47.030;18.518;2022-12-18T01:45:31;102063.84;;;-1.07;81.34
69214;BME280;56325;47.030;18.518;2022-12-18T01:48:08;102064.69;;;-1.27;82.16
69214;BME280;56325;47.030;18.518;2022-12-18T01:50:43;102074.81;;;-1.24;82.19
69214;BME280;56325;47.030;18.518;2022-12-18T01:53:20;102070.19;;;-1.36;82.59
69214;BME280;56325;47.030;18.518;2022-12-18T01:55:56;102071.66;;;-1.59;84.00
69214;BME280;56325;47.030;18.518;2022-12-18T01:58:37;102071.47;;;-1.54;83.67
69214;BME280;56325;47.030;18.518;2022-12-18T02:01:14;102073.66;;;-1.35;83.12
69214;BME280;56325;47.030;18.518;2022-12-18T02:03:50;102068.56;;;-1.49;83.68
69214;BME280;56325;47.030;18.518;2022-12-18T02:06:30;102079.97;;;-1.31;82.84
69214;BME280;56325;47.030;18.518;2022-12-18T02:09:11;102080.81;;;-1.51;83.27
69214;BME280;56325;47.030;18.518;2022-12-18T02:11:52;102089.69;;;-1.51;83.31
69214;BME280;56325;47.030;18.518;2022-12-18T02:14:38;102088.56;;;-1.50;83.53
69214;BME280;56325;47.030;18.518;2022-12-18T02:17:17;102094.00;;;-1.38;82.96
69214;BME280;56325;47.030;18.518;2022-12-18T02:20:03;102099.22;;;-1.53;83.52
69214;BME280;56325;47.030;18.518;2022-12-18T02:22:50;102106.94;;;-1.64;85.10
69214;BME280;56325;47.030;18.518;2022-12-18T02:28:32;102101.59;;;-1.19;84.60
69214;BME280;56325;47.030;18.518;2022-12-18T02:31:11;102103.47;;;-0.86;82.68
69214;BME280;56325;47.030;18.518;2022-12-18T02:33:48;102119.00;;;-0.95;83.42
69214;BME280;56325;47.030;18.518;2022-12-18T02:36:24;102115.28;;;-0.91;83.56
69214;BME280;56325;47.030;18.518;2022-12-18T02:39:01;102111.25;;;-0.73;81.59
69214;BME280;56325;47.030;18.518;2022-12-18T02:41:37;102119.13;;;-1.25;81.95
69214;BME280;56325;47.030;18.518;2022-12-18T02:44:14;102121.41;;;-1.48;82.49
69214;BME280;56325;47.030;18.518;2022-12-18T02:46:50;102122.41;;;-1.73;83.87
69214;BME280;56325;47.030;18.518;2022-12-18T02:49:33;102127.19;;;-1.58;85.40
69214;BME280;56325;47.030;18.518;2022-12-18T02:52:16;102129.63;;;-1.44;84.58
69214;BME280;56325;47.030;18.518;2022-12-18T02:54:59;102141.06;;;-1.47;83.95
69214;BME280;56325;47.030;18.518;2022-12-18T02:57:39;102139.44;;;-1.40;85.40
69214;BME280;56325;47.030;18.518;2022-12-18T03:00:20;102144.28;;;-1.33;84.54
69214;BME280;56325;47.030;18.518;2022-12-18T03:02:59;102148.25;;;-1.30;83.60
69214;BME280;56325;47.030;18.518;2022-12-18T03:05:38;102164.63;;;-1.36;84.13
69214;BME280;56325;47.030;18.518;2022-12-18T03:08:17;102161.47;;;-1.38;83.88
69214;BME280;56325;47.030;18.518;2022-12-18T03:10:58;102169.37;;;-1.33;84.38
69214;BME280;56325;47.030;18.518;2022-12-18T03:13:36;102167.78;;;-1.34;83.01
69214;BME280;56325;47.030;18.518;2022-12-18T03:16:18;102168.44;;;-1.16;81.64
69214;BME280;56325;47.030;18.518;2022-12-18T03:18:59;102174.16;;;-1.17;80.90
69214;BME280;56325;47.030;18.518;2022-12-18T03:21:40;102168.13;;;-1.56;82.11
69214;BME280;56325;47.030;18.518;2022-12-18T03:24:16;102163.06;;;-1.78;83.41
69214;BME280;56325;47.030;18.518;2022-12-18T03:26:54;102163.53;;;-1.76;83.51
69214;BME280;56325;47.030;18.518;2022-12-18T03:29:34;102160.66;;;-2.01;84.24
69214;BME280;56325;47.030;18.518;2022-12-18T03:32:15;102165.00;;;-2.08;84.63
69214;BME280;56325;47.030;18.518;2022-12-18T03:34:57;102167.31;;;-1.98;85.44
69214;BME280;56325;47.030;18.518;2022-12-18T03:37:35;102165.41;;;-1.98;85.71
69214;BME280;56325;47.030;18.518;2022-12-18T03:40:10;102179.16;;;-1.90;85.56
69214;BME280;56325;47.030;18.518;2022-12-18T03:42:49;102188.03;;;-1.69;85.10
69214;BME280;56325;47.030;18.518;2022-12-18T03:45:31;102194.03;;;-1.63;84.72
69214;BME280;56325;47.030;18.518;2022-12-18T03:48:13;102202.16;;;-1.43;84.07
69214;BME280;56325;47.030;18.518;2022-12-18T03:50:56;102204.44;;;-1.33;81.59
69214;BME280;56325;47.030;18.518;2022-12-18T03:53:36;102200.03;;;-1.58;81.74
69214;BME280;56325;47.030;18.518;2022-12-18T03:56:15;102204.41;;;-1.95;82.95
69214;BME280;56325;47.030;18.518;2022-12-18T03:58:52;102213.66;;;-2.05;84.62
69214;BME280;56325;47.030;18.518;2022-12-18T04:01:31;102215.16;;;-1.86;84.87
69214;BME280;56325;47.030;18.518;2022-12-18T04:04:09;102224.81;;;-1.85;84.70
69214;BME280;56325;47.030;18.518;2022-12-18T04:06:47;102231.13;;;-1.81;84.43
69214;BME280;56325;47.030;18.518;2022-12-18T04:09:23;102225.88;;;-1.78;84.98
69214;BME280;56325;47.030;18.518;2022-12-18T04:11:57;102237.34;;;-1.60;83.70
69214;BME280;56325;47.030;18.518;2022-12-18T04:14:32;102235.44;;;-1.59;84.03
69214;BME280;56325;47.030;18.518;2022-12-18T04:17:08;102238.53;;;-1.49;83.12
69214;BME280;56325;47.030;18.518;2022-12-18T04:19:44;102236.38;;;-1.35;82.31
69214;BME280;56325;47.030;18.518;2022-12-18T04:22:19;102237.91;;;-1.25;81.28
69214;BME280;56325;47.030;18.518;2022-12-18T04:25:00;102237.88;;;-1.46;80.02
69214;BME280;56325;47.030;18.518;2022-12-18T04:27:35;102237.00;;;-1.58;79.93
69214;BME280;56325;47.030;18.518;2022-12-18T04:30:11;102241.25;;;-2.08;81.72
69214;BME280;56325;47.030;18.518;2022-12-18T04:32:45;102234.38;;;-2.35;83.20
69214;BME280;56325;47.030;18.518;2022-12-18T04:35:26;102237.44;;;-2.53;84.27
69214;BME280;56325;47.030;18.518;2022-12-18T04:38:00;102236.97;;;-2.55;84.68
69214;BME280;56325;47.030;18.518;2022-12-18T04:40:35;102240.44;;;-2.46;86.10
69214;BME280;56325;47.030;18.518;2022-12-18T04:43:09;102244.34;;;-2.26;86.26
69214;BME280;56325;47.030;18.518;2022-12-18T04:45:44;102252.34;;;-2.09;85.76
69214;BME280;56325;47.030;18.518;2022-12-18T04:48:19;102254.84;;;-1.95;85.08
69214;BME280;56325;47.030;18.518;2022-12-18T04:50:56;102254.47;;;-1.85;84.03
69214;BME280;56325;47.030;18.518;2022-12-18T04:53:30;102250.94;;;-1.77;83.74
69214;BME280;56325;47.030;18.518;2022-12-18T04:56:06;102264.75;;;-1.79;81.89
69214;BME280;56325;47.030;18.518;2022-12-18T04:58:42;102263.34;;;-1.85;81.99
69214;BME280;56325;47.030;18.518;2022-12-18T05:01:18;102271.38;;;-2.06;82.70
69214;BME280;56325;47.030;18.518;2022-12-18T05:03:52;102259.81;;;-2.15;83.07
69214;BME280;56325;47.030;18.518;2022-12-18T05:06:28;102277.87;;;-2.07;84.19
69214;BME280;56325;47.030;18.518;2022-12-18T05:09:03;102270.72;;;-2.03;83.76
69214;BME280;56325;47.030;18.518;2022-12-18T05:11:37;102271.00;;;-1.95;83.08
69214;BME280;56325;47.030;18.518;2022-12-18T05:14:11;102275.16;;;-1.98;83.78
69214;BME280;56325;47.030;18.518;2022-12-18T05:16:46;102275.91;;;-1.89;83.19
69214;BME280;56325;47.030;18.518;2022-12-18T05:19:20;102259.41;;;-1.87;81.74
69214;BME280;56325;47.030;18.518;2022-12-18T05:21:56;102273.34;;;-2.32;83.04
69214;BME280;56325;47.030;18.518;2022-12-18T05:24:31;102275.09;;;-2.27;84.24
69214;BME280;56325;47.030;18.518;2022-12-18T05:27:05;102282.06;;;-2.26;84.08
69214;BME280;56325;47.030;18.518;2022-12-18T05:29:41;102282.31;;;-2.11;84.33
69214;BME280;56325;47.030;18.518;2022-12-18T05:32:16;102279.94;;;-2.04;83.29
69214;BME280;56325;47.030;18.518;2022-12-18T05:34:50;102289.28;;;-2.01;82.70
69214;BME280;56325;47.030;18.518;2022-12-18T05:37:26;102297.72;;;-2.11;82.83
69214;BME280;56325;47.030;18.518;2022-12-18T05:40:01;102300.56;;;-2.08;82.76
69214;BME280;56325;47.030;18.518;2022-12-18T05:42:36;102306.28;;;-2.09;82.44
69214;BME280;56325;47.030;18.518;2022-12-18T05:45:10;102302.16;;;-2.15;82.34
69214;BME280;56325;47.030;18.518;2022-12-18T05:47:44;102311.50;;;-2.13;83.62
69214;BME280;56325;47.030;18.518;2022-12-18T05:50:20;102312.94;;;-2.15;84.37
69214;BME280;56325;47.030;18.518;2022-12-18T05:52:56;102318.28;;;-1.98;82.93
69214;BME280;56325;47.030;18.518;2022-12-18T05:55:33;102315.44;;;-2.02;81.46
69214;BME280;56325;47.030;18.518;2022-12-18T05:58:09;102312.16;;;-2.16;81.66
69214;BME280;56325;47.030;18.518;2022-12-18T06:00:45;102314.06;;;-2.16;82.56
69214;BME280;56325;47.030;18.518;2022-12-18T06:03:20;102317.87;;;-2.17;82.58
69214;BME280;56325;47.030;18.518;2022-12-18T06:05:54;102317.56;;;-2.24;83.74
69214;BME280;56325;47.030;18.518;2022-12-18T06:08:30;102320.53;;;-2.09;82.68
69214;BME280;56325;47.030;18.518;2022-12-18T06:11:04;102320.69;;;-2.05;82.14
69214;BME280;56325;47.030;18.518;2022-12-18T06:13:39;102322.72;;;-1.93;80.55
69214;BME280;56325;47.030;18.518;2022-12-18T06:16:14;102336.75;;;-2.26;81.38
69214;BME280;56325;47.030;18.518;2022-12-18T06:18:48;102336.59;;;-2.29;81.64
69214;BME280;56325;47.030;18.518;2022-12-18T06:21:23;102339.94;;;-2.33;81.51
69214;BME280;56325;47.030;18.518;2022-12-18T06:23:59;102338.50;;;-2.39;82.54
69214;BME280;56325;47.030;18.518;2022-12-18T06:26:34;102357.84;;;-2.28;82.11
69214;BME280;56325;47.030;18.518;2022-12-18T06:29:10;102351.63;;;-2.20;80.84
69214;BME280;56325;47.030;18.518;2022-12-18T06:31:44;102352.59;;;-2.33;80.74
69214;BME280;56325;47.030;18.518;2022-12-18T06:34:19;102362.94;;;-2.61;81.92
69214;BME280;56325;47.030;18.518;2022-12-18T06:36:53;102364.03;;;-2.53;82.52
69214;BME280;56325;47.030;18.518;2022-12-18T06:39:29;102376.53;;;-2.57;84.03
69214;BME280;56325;47.030;18.518;2022-12-18T06:42:04;102375.44;;;-2.39;83.79
69214;BME280;56325;47.030;18.518;2022-12-18T06:44:39;102368.84;;;0.10;99.41
69214;BME280;56325;47.030;18.518;2022-12-18T06:47:13;102357.81;;;3.13;100.00
69214;BME280;56325;47.030;18.518;2022-12-18T06:49:49;102368.78;;;1.31;100.00
69214;BME280;56325;47.030;18.518;2022-12-18T06:52:23;102373.47;;;-0.03;94.39
69214;BME280;56325;47.030;18.518;2022-12-18T06:54:59;102378.19;;;-0.87;90.37
69214;BME280;56325;47.030;18.518;2022-12-18T06:57:33;102389.59;;;-1.11;90.97
69214;BME280;56325;47.030;18.518;2022-12-18T07:00:08;102388.34;;;-1.43;88.39
69214;BME280;56325;47.030;18.518;2022-12-18T07:02:43;102403.47;;;-1.59;87.24
69214;BME280;56325;47.030;18.518;2022-12-18T07:05:17;102403.00;;;-1.61;87.53
69214;BME280;56325;47.030;18.518;2022-12-18T07:07:52;102405.34;;;-1.89;85.29
69214;BME280;56325;47.030;18.518;2022-12-18T07:10:28;102413.13;;;-2.05;85.06
69214;BME280;56325;47.030;18.518;2022-12-18T07:13:02;102423.28;;;-2.19;85.08
69214;BME280;56325;47.030;18.518;2022-12-18T07:15:37;102425.03;;;-2.06;83.87
69214;BME280;56325;47.030;18.518;2022-12-18T07:18:11;102420.44;;;-2.05;83.36
69214;BME280;56325;47.030;18.518;2022-12-18T07:20:46;102426.94;;;-2.49;84.31
69214;BME280;56325;47.030;18.518;2022-12-18T07:23:20;102432.47;;;-2.46;86.27
69214;BME280;56325;47.030;18.518;2022-12-18T07:26:00;102441.69;;;-2.21;86.86
69214;BME280;56325;47.030;18.518;2022-12-18T07:28:36;102439.59;;;-1.89;84.61
69214;BME280;56325;47.030;18.518;2022-12-18T07:31:13;102446.44;;;-2.01;83.77
69214;BME280;56325;47.030;18.518;2022-12-18T07:33:48;102440.09;;;-2.13;83.84
69214;BME280;56325;47.030;18.518;2022-12-18T07:36:23;102447.22;;;-2.09;85.25
69214;BME280;56325;47.030;18.518;2022-12-18T07:38:57;102462.75;;;-1.97;86.21
69214;BME280;56325;47.030;18.518;2022-12-18T07:41:36;102465.13;;;-1.87;84.13
69214;BME280;56325;47.030;18.518;2022-12-18T07:44:20;102438.19;;;2.32;100.00
69214;BME280;56325;47.030;18.518;2022-12-18T07:46:55;102451.00;;;2.47;100.00
69214;BME280;56325;47.030;18.518;2022-12-18T07:49:29;102450.25;;;0.62;98.70
69214;BME280;56325;47.030;18.518;2022-12-18T07:52:05;102473.16;;;-0.35;92.17
69214;BME280;56325;47.030;18.518;2022-12-18T07:54:39;102473.50;;;2.04;100.00
69214;BME280;56325;47.030;18.518;2022-12-18T07:57:18;102474.28;;;3.11;100.00
69214;BME280;56325;47.030;18.518;2022-12-18T08:00:14;102483.41;;;1.84;98.36
69214;BME280;56325;47.030;18.518;2022-12-18T08:02:49;102497.03;;;0.50;89.97
69214;BME280;56325;47.030;18.518;2022-12-18T08:05:24;102508.56;;;-0.27;87.36
69214;BME280;56325;47.030;18.518;2022-12-18T08:07:58;102503.63;;;-0.25;86.44
69214;BME280;56325;47.030;18.518;2022-12-18T08:10:32;102507.09;;;-0.46;84.78
69214;BME280;56325;47.030;18.518;2022-12-18T08:13:08;102516.34;;;-0.26;84.43
69214;BME280;56325;47.030;18.518;2022-12-18T08:15:43;102512.84;;;-0.26;81.58
69214;BME280;56325;47.030;18.518;2022-12-18T08:18:17;102511.25;;;-0.48;80.79
69214;BME280;56325;47.030;18.518;2022-12-18T08:20:51;102510.84;;;-0.59;81.22
69214;BME280;56325;47.030;18.518;2022-12-18T08:23:26;102514.97;;;-0.61;82.54
69214;BME280;56325;47.030;18.518;2022-12-18T08:26:00;102510.88;;;-0.68;80.47
69214;BME280;56325;47.030;18.518;2022-12-18T08:28:36;102523.44;;;-0.42;80.23
69214;BME280;56325;47.030;18.518;2022-12-18T08:31:21;102527.69;;;-0.62;80.31
69214;BME280;56325;47.030;18.518;2022-12-18T08:33:57;102520.97;;;-0.85;80.98
69214;BME280;56325;47.030;18.518;2022-12-18T08:36:31;102531.37;;;-0.96;81.92
69214;BME280;56325;47.030;18.518;2022-12-18T08:39:06;102519.75;;;-0.88;80.89
69214;BME280;56325;47.030;18.518;2022-12-18T08:41:40;102522.09;;;-0.86;81.69
69214;BME280;56325;47.030;18.518;2022-12-18T08:44:16;102524.66;;;-0.60;80.87
69214;BME280;56325;47.030;18.518;2022-12-18T08:47:08;102512.53;;;2.87;100.00
69214;BME280;56325;47.030;18.518;2022-12-18T08:49:43;102515.03;;;1.04;87.14
69214;BME280;56325;47.030;18.518;2022-12-18T08:52:18;102501.84;;;0.78;82.09
69214;BME280;56325;47.030;18.518;2022-12-18T08:54:52;102511.66;;;0.37;78.04
69214;BME280;56325;47.030;18.518;2022-12-18T08:57:26;102521.13;;;0.10;78.49
69214;BME280;56325;47.030;18.518;2022-12-18T09:00:03;102524.09;;;0.17;79.92
69214;BME280;56325;47.030;18.518;2022-12-18T09:02:37;102525.97;;;0.38;77.86
69214;BME280;56325;47.030;18.518;2022-12-18T09:05:12;102524.47;;;0.28;77.13
69214;BME280;56325;47.030;18.518;2022-12-18T09:07:46;102528.19;;;0.03;76.30
69214;BME280;56325;47.030;18.518;2022-12-18T09:10:21;102522.50;;;0.16;76.30
69214;BME280;56325;47.030;18.518;2022-12-18T09:12:56;102526.25;;;0.24;75.21
69214;BME280;56325;47.030;18.518;2022-12-18T09:15:32;102533.66;;;0.15;76.60
69214;BME280;56325;47.030;18.518;2022-12-18T09:18:06;102530.03;;;0.31;76.32
69214;BME280;56325;47.030;18.518;2022-12-18T09:20:42;102523.72;;;0.40;75.76
69214;BME280;56325;47.030;18.518;2022-12-18T09:23:16;102522.59;;;0.41;73.37
69214;BME280;56325;47.030;18.518;2022-12-18T09:25:50;102524.09;;;0.50;74.00
69214;BME280;56325;47.030;18.518;2022-12-18T09:28:24;102514.53;;;0.53;73.42
69214;BME280;56325;47.030;18.518;2022-12-18T09:31:04;102516.03;;;0.87;73.30
69214;BME280;56325;47.030;18.518;2022-12-18T09:33:49;102514.50;;;0.86;71.70
69214;BME280;56325;47.030;18.518;2022-12-18T09:36:24;102515.81;;;0.92;71.36
69214;BME280;56325;47.030;18.518;2022-12-18T09:38:58;102510.63;;;0.87;72.40
69214;BME280;56325;47.030;18.518;2022-12-18T09:41:43;102513.78;;;0.89;70.96
69214;BME280;56325;47.030;18.518;2022-12-18T09:44:24;102512.91;;;1.09;71.36
69214;BME280;56325;47.030;18.518;2022-12-18T09:47:08;102513.59;;;1.30;71.33
69214;BME280;56325;47.030;18.518;2022-12-18T09:49:46;102510.06;;;1.42;69.54
69214;BME280;56325;47.030;18.518;2022-12-18T09:52:25;102507.00;;;1.56;69.91
69214;BME280;56325;47.030;18.518;2022-12-18T09:55:05;102512.78;;;1.30;69.73
69214;BME280;56325;47.030;18.518;2022-12-18T09:57:49;102504.75;;;1.46;70.06
69214;BME280;56325;47.030;18.518;2022-12-18T10:00:25;102515.16;;;1.31;70.72
69214;BME280;56325;47.030;18.518;2022-12-18T10:03:09;102513.66;;;1.58;71.88
69214;BME280;56325;47.030;18.518;2022-12-18T10:05:53;102507.59;;;1.89;70.33
69214;BME280;56325;47.030;18.518;2022-12-18T10:08:39;102507.75;;;2.09;68.35
69214;BME280;56325;47.030;18.518;2022-12-18T10:11:31;102508.03;;;1.91;68.20
69214;BME280;56325;47.030;18.518;2022-12-18T10:14:14;102503.06;;;2.21;70.48
69214;BME280;56325;47.030;18.518;2022-12-18T10:16:59;102503.94;;;2.25;68.80
69214;BME280;56325;47.030;18.518;2022-12-18T10:19:42;102510.56;;;2.40;68.06
69214;BME280;56325;47.030;18.518;2022-12-18T10:22:31;102508.75;;;2.76;69.15
69214;BME280;56325;47.030;18.518;2022-12-18T10:25:17;102505.16;;;2.72;68.24
69214;BME280;56325;47.030;18.518;2022-12-18T10:27:56;102503.12;;;2.84;68.81
69214;BME280;56325;47.030;18.518;2022-12-18T10:30:31;102509.38;;;3.01;68.91
69214;BME280;56325;47.030;18.518;2022-12-18T10:33:08;102507.66;;;3.43;66.11
69214;BME280;56325;47.030;18.518;2022-12-18T10:35:50;102505.94;;;3.19;66.23
69214;BME280;56325;47.030;18.518;2022-12-18T10:38:26;102502.53;;;2.91;65.31
69214;BME280;56325;47.030;18.518;2022-12-18T10:41:03;102516.56;;;2.93;66.55
69214;BME280;56325;47.030;18.518;2022-12-18T10:43:39;102519.88;;;2.86;67.24
69214;BME280;56325;47.030;18.518;2022-12-18T10:46:17;102519.72;;;2.95;67.43
69214;BME280;56325;47.030;18.518;2022-12-18T10:48:55;102521.78;;;2.70;66.69
69214;BME280;56325;47.030;18.518;2022-12-18T10:51:33;102510.25;;;3.05;68.17
69214;BME280;56325;47.030;18.518;2022-12-18T10:54:14;102519.34;;;3.12;66.91
69214;BME280;56325;47.030;18.518;2022-12-18T10:56:49;102505.31;;;3.10;66.85
69214;BME280;56325;47.030;18.518;2022-12-18T10:59:24;102511.97;;;3.28;65.08
69214;BME280;56325;47.030;18.518;2022-12-18T11:01:58;102510.94;;;3.17;67.10
69214;BME280;56325;47.030;18.518;2022-12-18T11:04:33;102496.62;;;3.36;66.33
69214;BME280;56325;47.030;18.518;2022-12-18T11:07:09;102499.28;;;3.52;65.70
69214;BME280;56325;47.030;18.518;2022-12-18T11:10:03;102493.97;;;3.40;66.58
69214;BME280;56325;47.030;18.518;2022-12-18T11:12:39;102500.75;;;3.49;64.51
69214;BME280;56325;47.030;18.518;2022-12-18T11:15:16;102493.06;;;3.71;64.09
69214;BME280;56325;47.030;18.518;2022-12-18T11:17:53;102487.53;;;3.48;64.00
69214;BME280;56325;47.030;18.518;2022-12-18T11:20:31;102488.97;;;3.61;64.75
69214;BME280;56325;47.030;18.518;2022-12-18T11:23:12;102493.63;;;3.41;64.66
69214;BME280;56325;47.030;18.518;2022-12-18T11:25:52;102480.19;;;3.68;64.52
69214;BME280;56325;47.030;18.518;2022-12-18T11:28:35;102479.69;;;3.81;63.99
69214;BME280;56325;47.030;18.518;2022-12-18T11:31:23;102478.56;;;4.02;62.63
69214;BME280;56325;47.030;18.518;2022-12-18T11:34:01;102480.97;;;3.68;64.55
69214;BME280;56325;47.030;18.518;2022-12-18T11:36:58;102470.94;;;4.11;63.52
69214;BME280;56325;47.030;18.518;2022-12-18T11:39:38;102471.38;;;4.13;62.63
69214;BME280;56325;47.030;18.518;2022-12-18T11:42:20;102464.78;;;4.14;61.44
69214;BME280;56325;47.030;18.518;2022-12-18T11:44:59;102464.94;;;4.02;62.41
69214;BME280;56325;47.030;18.518;2022-12-18T11:47:39;102467.22;;;4.19;62.33
69214;BME280;56325;47.030;18.518;2022-12-18T11:50:18;102468.72;;;4.39;62.74
69214;BME280;56325;47.030;18.518;2022-12-18T11:52:53;102455.00;;;4.32;61.75
69214;BME280;56325;47.030;18.518;2022-12-18T11:55:43;102456.81;;;4.47;61.97
69214;BME280;56325;47.030;18.518;2022-12-18T11:58:39;102456.75;;;4.67;61.12
69214;BME280;56325;47.030;18.518;2022-12-18T12:01:31;102453.66;;;4.91;60.82
69214;BME280;56325;47.030;18.518;2022-12-18T12:04:41;102453.97;;;5.12;59.57
69214;BME280;56325;47.030;18.518;2022-12-18T12:07:34;102456.91;;;5.00;59.24
69214;BME280;56325;47.030;18.518;2022-12-18T12:10:27;102447.41;;;4.90;59.00
69214;BME280;56325;47.030;18.518;2022-12-18T12:13:29;102442.88;;;5.28;58.46
69214;BME280;56325;47.030;18.518;2022-12-18T12:16:15;102453.81;;;5.58;57.83
69214;BME280;56325;47.030;18.518;2022-12-18T12:19:01;102447.88;;;5.82;56.21
69214;BME280;56325;47.030;18.518;2022-12-18T12:21:40;102452.06;;;6.03;56.75
69214;BME280;56325;47.030;18.518;2022-12-18T12:24:32;102443.41;;;6.38;55.23
69214;BME280;56325;47.030;18.518;2022-12-18T12:27:18;102446.87;;;6.31;54.58
69214;BME280;56325;47.030;18.518;2022-12-18T12:30:04;102453.28;;;6.49;55.63
69214;BME280;56325;47.030;18.518;2022-12-18T12:32:52;102454.28;;;6.31;53.82
69214;BME280;56325;47.030;18.518;2022-12-18T12:35:42;102454.78;;;6.43;54.99
69214;BME280;56325;47.030;18.518;2022-12-18T12:38:22;102446.56;;;6.84;53.94
69214;BME280;56325;47.030;18.518;2022-12-18T12:41:01;102457.53;;;6.87;54.45
69214;BME280;56325;47.030;18.518;2022-12-18T12:43:41;102442.69;;;6.88;53.99
69214;BME280;56325;47.030;18.518;2022-12-18T12:46:25;102439.41;;;7.27;52.83
69214;BME280;56325;47.030;18.518;2022-12-18T12:49:02;102450.44;;;7.45;52.65
69214;BME280;56325;47.030;18.518;2022-12-18T12:51:41;102454.63;;;7.24;52.04
69214;BME280;56325;47.030;18.518;2022-12-18T12:54:20;102453.69;;;7.03;53.58
69214;BME280;56325;47.030;18.518;2022-12-18T12:57:01;102454.59;;;7.21;52.11
69214;BME280;56325;47.030;18.518;2022-12-18T12:59:49;102462.59;;;6.89;52.05
69214;BME280;56325;47.030;18.518;2022-12-18T13:02:30;102469.12;;;5.96;53.34
69214;BME280;56325;47.030;18.518;2022-12-18T13:05:16;102470.84;;;5.78;55.91
69214;BME280;56325;47.030;18.518;2022-12-18T13:08:00;102477.22;;;5.59;55.53
69214;BME280;56325;47.030;18.518;2022-12-18T13:10:39;102481.41;;;4.97;57.62
69214;BME280;56325;47.030;18.518;2022-12-18T13:13:16;102483.94;;;4.40;60.17
69214;BME280;56325;47.030;18.518;2022-12-18T13:16:04;102493.97;;;4.36;60.48
69214;BME280;56325;47.030;18.518;2022-12-18T13:18:48;102495.38;;;4.26;61.41
69214;BME280;56325;47.030;18.518;2022-12-18T13:21:25;102505.31;;;3.80;62.68
69214;BME280;56325;47.030;18.518;2022-12-18T13:24:15;102513.91;;;3.63;62.60
69214;BME280;56325;47.030;18.518;2022-12-18T13:26:50;102503.56;;;3.53;63.51
69214;BME280;56325;47.030;18.518;2022-12-18T13:29:44;102499.34;;;3.55;64.47
69214;BME280;56325;47.030;18.518;2022-12-18T13:32:22;102497.78;;;3.54;64.82
69214;BME280;56325;47.030;18.518;2022-12-18T13:35:39;102505.56;;;3.37;66.56
69214;BME280;56325;47.030;18.518;2022-12-18T13:38:21;102496.25;;;3.38;66.14
69214;BME280;56325;47.030;18.518;2022-12-18T13:40:56;102495.06;;;3.19;66.91
69214;BME280;56325;47.030;18.518;2022-12-18T13:43:37;102493.84;;;3.17;67.35